createdAt,value
2019-03-13T00:00:51.010Z,4.00
2019-03-13T00:01:51.022Z,4.00
2019-03-13T00:02:51.025Z,4.00
2019-03-13T00:03:51.033Z,4.00
2019-03-13T00:04:51.077Z,4.00
2019-03-13T00:05:51.096Z,4.00
2019-03-13T00:06:51.057Z,4.00
2019-03-13T00:07:51.067Z,4.00
2019-03-13T00:08:51.082Z,4.00
2019-03-13T00:09:51.088Z,4.00
2019-03-13T00:10:51.103Z,4.00
2019-03-13T00:11:51.114Z,4.00
2019-03-13T00:12:51.118Z,4.00
2019-03-13T00:13:51.146Z,4.00
2019-03-13T00:14:51.142Z,4.00
2019-03-13T00:15:51.151Z,4.00
2019-03-13T00:16:51.166Z,4.00
2019-03-13T00:17:51.171Z,4.00
2019-03-13T00:18:51.183Z,4.00
2019-03-13T00:19:51.190Z,4.00
2019-03-13T00:20:51.203Z,4.00
2019-03-13T00:21:51.537Z,4.00
2019-03-13T00:22:51.337Z,4.00
2019-03-13T00:23:51.235Z,4.00
2019-03-13T00:24:51.264Z,4.00
2019-03-13T00:25:51.256Z,4.00
2019-03-13T00:26:51.266Z,4.00
2019-03-13T00:27:51.271Z,4.00
2019-03-13T00:28:51.283Z,4.00
2019-03-13T00:29:51.305Z,4.00
2019-03-13T00:30:51.303Z,4.00
2019-03-13T00:31:51.318Z,4.00
2019-03-13T00:32:51.329Z,4.00
2019-03-13T00:33:51.331Z,4.00
2019-03-13T00:34:51.345Z,4.00
2019-03-13T00:35:51.367Z,4.00
2019-03-13T00:36:51.405Z,4.00
2019-03-13T00:37:51.392Z,4.00
2019-03-13T00:38:51.399Z,4.00
2019-03-13T00:39:51.395Z,4.00
2019-03-13T00:40:51.407Z,4.00
2019-03-13T00:41:51.412Z,4.00
2019-03-13T00:42:51.427Z,4.00
2019-03-13T00:43:51.433Z,4.00
2019-03-13T00:44:51.470Z,4.00
2019-03-13T00:45:51.462Z,4.00
2019-03-13T00:46:51.477Z,4.00
2019-03-13T00:47:51.476Z,4.00
2019-03-13T00:48:51.484Z,4.00
2019-03-13T00:49:51.569Z,4.00
2019-03-13T00:50:51.667Z,4.00
2019-03-13T00:51:51.779Z,4.00
2019-03-13T00:52:51.534Z,4.00
2019-03-13T00:53:51.540Z,4.00
2019-03-13T00:54:51.553Z,4.00
2019-03-13T00:55:51.567Z,4.00
2019-03-13T00:56:51.571Z,4.00
2019-03-13T00:57:51.583Z,4.00
2019-03-13T00:58:51.590Z,4.00
2019-03-13T00:59:51.610Z,4.00
2019-03-13T01:00:51.612Z,4.00
2019-03-13T01:01:51.618Z,4.00
2019-03-13T01:02:51.654Z,4.00
2019-03-13T01:03:51.639Z,4.00
2019-03-13T01:04:51.652Z,4.00
2019-03-13T01:05:51.669Z,4.00
2019-03-13T01:06:51.974Z,4.00
2019-03-13T01:07:51.680Z,4.00
2019-03-13T01:08:51.691Z,4.00
2019-03-13T01:09:51.710Z,4.00
2019-03-13T01:10:51.717Z,4.00
2019-03-13T01:11:51.822Z,4.00
2019-03-13T01:12:51.733Z,4.00
2019-03-13T01:13:51.746Z,4.00
2019-03-13T01:14:51.766Z,4.00
2019-03-13T01:15:51.770Z,4.00
2019-03-13T01:16:51.790Z,4.00
2019-03-13T01:17:51.795Z,4.00
2019-03-13T01:18:51.804Z,4.00
2019-03-13T01:19:51.806Z,4.00
2019-03-13T01:20:51.842Z,4.00
2019-03-13T01:21:51.827Z,4.00
2019-03-13T01:22:51.844Z,4.00
2019-03-13T01:23:51.845Z,4.00
2019-03-13T01:24:51.859Z,4.00
2019-03-13T01:25:51.876Z,4.00
2019-03-13T01:26:51.881Z,4.00
2019-03-13T01:27:51.895Z,4.00
2019-03-13T01:28:51.987Z,4.00
2019-03-13T01:29:51.910Z,4.00
2019-03-13T01:30:51.923Z,4.00
2019-03-13T01:31:51.937Z,4.00
2019-03-13T01:32:51.945Z,4.00
2019-03-13T01:33:51.967Z,4.00
2019-03-13T01:34:52.021Z,4.00
2019-03-13T01:35:51.987Z,4.00
2019-03-13T01:36:52.011Z,4.00
2019-03-13T01:37:51.992Z,4.00
2019-03-13T01:38:52.000Z,4.00
2019-03-13T01:39:52.115Z,4.00
2019-03-13T01:40:52.050Z,4.00
2019-03-13T01:41:52.041Z,4.00
2019-03-13T01:42:52.067Z,4.00
2019-03-13T01:43:52.053Z,4.00
2019-03-13T01:44:52.071Z,4.00
2019-03-13T01:45:52.074Z,4.00
2019-03-13T01:46:52.090Z,4.00
2019-03-13T01:47:52.104Z,4.00
2019-03-13T01:48:52.140Z,4.00
2019-03-13T01:49:52.126Z,4.00
2019-03-13T01:50:52.274Z,4.00
2019-03-13T01:51:52.151Z,4.00
2019-03-13T01:52:52.156Z,4.00
2019-03-13T01:53:52.161Z,4.00
2019-03-13T01:54:52.205Z,4.00
2019-03-13T01:55:52.179Z,4.00
2019-03-13T01:56:52.191Z,4.00
2019-03-13T01:57:52.200Z,4.00
2019-03-13T01:58:52.211Z,4.00
2019-03-13T01:59:52.228Z,4.00
2019-03-13T02:00:52.263Z,4.00
2019-03-13T02:01:52.348Z,4.00
2019-03-13T02:02:52.250Z,4.00
2019-03-13T02:03:52.270Z,4.00
2019-03-13T02:04:52.274Z,4.00
2019-03-13T02:05:52.284Z,4.00
2019-03-13T02:06:52.295Z,4.00
2019-03-13T02:07:52.309Z,4.00
2019-03-13T02:08:52.394Z,4.00
2019-03-13T02:09:52.350Z,4.00
2019-03-13T02:10:52.375Z,4.00
2019-03-13T02:11:52.390Z,4.00
2019-03-13T02:12:52.356Z,4.00
2019-03-13T02:13:52.483Z,4.00
2019-03-13T02:14:52.392Z,4.00
2019-03-13T02:15:52.393Z,4.00
2019-03-13T02:16:52.424Z,4.00
2019-03-13T02:17:52.411Z,4.00
2019-03-13T02:18:52.419Z,4.00
2019-03-13T02:19:52.434Z,4.00
2019-03-13T02:20:52.466Z,4.00
2019-03-13T02:21:52.547Z,4.00
2019-03-13T02:22:52.457Z,4.00
2019-03-13T02:23:52.493Z,4.00
2019-03-13T02:24:54.204Z,4.00
2019-03-13T02:25:52.510Z,4.00
2019-03-13T02:26:52.502Z,4.00
2019-03-13T02:27:52.608Z,4.00
2019-03-13T02:28:52.544Z,4.00
2019-03-13T02:29:52.940Z,4.00
2019-03-13T02:30:52.575Z,4.00
2019-03-13T02:31:52.574Z,4.00
2019-03-13T02:32:52.573Z,4.00
2019-03-13T02:33:52.613Z,4.00
2019-03-13T02:34:52.583Z,4.00
2019-03-13T02:35:52.596Z,4.00
2019-03-13T02:36:52.641Z,4.00
2019-03-13T02:37:52.618Z,4.00
2019-03-13T02:38:52.632Z,4.00
2019-03-13T02:39:52.636Z,4.00
2019-03-13T02:40:52.650Z,4.00
2019-03-13T02:41:52.655Z,4.00
2019-03-13T02:42:52.680Z,4.00
2019-03-13T02:43:52.691Z,4.00
2019-03-13T02:44:52.689Z,4.00
2019-03-13T02:45:52.696Z,4.00
2019-03-13T02:46:52.708Z,4.00
2019-03-13T02:47:52.716Z,4.00
2019-03-13T02:48:52.763Z,4.00
2019-03-13T02:49:52.850Z,4.00
2019-03-13T02:50:52.760Z,4.00
2019-03-13T02:51:52.773Z,4.00
2019-03-13T02:52:52.787Z,4.00
2019-03-13T02:53:52.778Z,4.00
2019-03-13T02:54:52.814Z,4.00
2019-03-13T02:55:52.817Z,4.00
2019-03-13T02:56:52.810Z,4.00
2019-03-13T02:57:52.811Z,4.00
2019-03-13T02:58:52.831Z,4.00
2019-03-13T02:59:52.837Z,4.00
2019-03-13T03:00:52.847Z,4.00
2019-03-13T03:01:52.855Z,4.00
2019-03-13T03:02:52.960Z,4.00
2019-03-13T03:03:52.887Z,4.00
2019-03-13T03:04:52.890Z,4.00
2019-03-13T03:05:52.901Z,4.00
2019-03-13T03:06:52.908Z,4.00
2019-03-13T03:07:52.916Z,4.00
2019-03-13T03:08:53.117Z,4.00
2019-03-13T03:09:52.945Z,4.00
2019-03-13T03:10:52.951Z,4.00
2019-03-13T03:11:52.964Z,4.00
2019-03-13T03:12:52.969Z,4.00
2019-03-13T03:13:53.085Z,4.00
2019-03-13T03:14:52.991Z,4.00
2019-03-13T03:15:53.026Z,4.00
2019-03-13T03:16:53.014Z,4.00
2019-03-13T03:17:53.033Z,4.00
2019-03-13T03:18:53.030Z,4.00
2019-03-13T03:19:53.045Z,4.00
2019-03-13T03:20:53.066Z,4.00
2019-03-13T03:21:53.124Z,4.00
2019-03-13T03:22:53.073Z,4.00
2019-03-13T03:23:53.098Z,4.00
2019-03-13T03:24:53.092Z,4.00
2019-03-13T03:25:53.102Z,4.00
2019-03-13T03:26:53.118Z,4.00
2019-03-13T03:27:53.127Z,4.00
2019-03-13T03:28:53.240Z,4.00
2019-03-13T03:29:53.283Z,4.00
2019-03-13T03:30:53.155Z,4.00
2019-03-13T03:31:53.169Z,4.00
2019-03-13T03:32:53.211Z,4.00
2019-03-13T03:33:53.187Z,4.00
2019-03-13T03:34:53.198Z,4.00
2019-03-13T03:35:53.208Z,4.00
2019-03-13T03:36:53.219Z,4.00
2019-03-13T03:37:53.233Z,4.00
2019-03-13T03:38:53.239Z,4.00
2019-03-13T03:39:53.258Z,4.00
2019-03-13T03:40:53.262Z,4.00
2019-03-13T03:41:53.287Z,4.00
2019-03-13T03:42:53.280Z,4.00
2019-03-13T03:43:53.291Z,4.00
2019-03-13T03:44:53.319Z,4.00
2019-03-13T03:45:53.313Z,4.00
2019-03-13T03:46:53.325Z,4.00
2019-03-13T03:47:53.331Z,4.00
2019-03-13T03:48:53.362Z,4.00
2019-03-13T03:49:53.363Z,4.00
2019-03-13T03:50:53.378Z,4.00
2019-03-13T03:51:53.379Z,4.00
2019-03-13T03:52:53.385Z,4.00
2019-03-13T03:53:53.396Z,4.00
2019-03-13T03:54:53.407Z,4.00
2019-03-13T03:55:53.416Z,4.00
2019-03-13T03:56:53.425Z,4.00
2019-03-13T03:57:53.436Z,4.00
2019-03-13T03:59:53.602Z,4.00
2019-03-13T04:00:53.738Z,4.00
2019-03-13T04:01:53.479Z,4.00
2019-03-13T04:02:53.489Z,4.00
2019-03-13T04:03:53.500Z,4.00
2019-03-13T04:04:53.510Z,4.00
2019-03-13T04:05:53.526Z,4.00
2019-03-13T04:06:53.534Z,4.00
2019-03-13T04:07:53.541Z,4.00
2019-03-13T04:08:53.552Z,4.00
2019-03-13T04:09:53.580Z,4.00
2019-03-13T04:10:53.573Z,4.00
2019-03-13T04:11:53.581Z,4.00
2019-03-13T04:12:53.591Z,4.00
2019-03-13T04:13:53.605Z,4.00
2019-03-13T04:15:53.633Z,4.00
2019-03-13T04:16:53.643Z,4.00
2019-03-13T04:17:54.072Z,4.00
2019-03-13T04:18:53.657Z,4.00
2019-03-13T04:19:53.671Z,4.00
2019-03-13T04:20:53.684Z,4.00
2019-03-13T04:21:53.687Z,4.00
2019-03-13T04:22:53.696Z,4.00
2019-03-13T04:23:53.714Z,4.00
2019-03-13T04:24:53.723Z,4.00
2019-03-13T04:25:53.729Z,4.00
2019-03-13T04:26:53.739Z,4.00
2019-03-13T04:27:53.746Z,4.00
2019-03-13T04:28:53.760Z,4.00
2019-03-13T04:29:53.794Z,4.00
2019-03-13T04:30:53.785Z,4.00
2019-03-13T04:31:53.791Z,4.00
2019-03-13T04:32:53.814Z,4.00
2019-03-13T04:33:53.811Z,4.00
2019-03-13T04:34:53.824Z,4.00
2019-03-13T04:35:53.837Z,4.00
2019-03-13T04:36:53.856Z,4.00
2019-03-13T04:37:53.860Z,4.00
2019-03-13T04:38:53.865Z,4.00
2019-03-13T04:39:53.885Z,4.00
2019-03-13T04:40:53.886Z,4.00
2019-03-13T04:41:53.894Z,4.00
2019-03-13T04:42:53.908Z,4.00
2019-03-13T04:43:53.923Z,4.00
2019-03-13T04:44:53.930Z,4.00
2019-03-13T04:45:53.939Z,4.00
2019-03-13T04:46:53.950Z,4.00
2019-03-13T04:47:53.967Z,4.00
2019-03-13T04:48:53.972Z,4.00
2019-03-13T04:49:53.996Z,4.00
2019-03-13T04:50:53.990Z,4.00
2019-03-13T04:51:53.998Z,4.00
2019-03-13T04:52:54.017Z,4.00
2019-03-13T04:53:54.027Z,4.00
2019-03-13T04:54:54.035Z,4.00
2019-03-13T04:55:54.045Z,4.00
2019-03-13T04:56:54.071Z,4.00
2019-03-13T04:57:54.090Z,4.00
2019-03-13T04:58:54.086Z,4.00
2019-03-13T04:59:54.102Z,4.00
2019-03-13T05:00:54.104Z,4.00
2019-03-13T05:01:54.160Z,4.00
2019-03-13T05:02:54.129Z,4.00
2019-03-13T05:03:54.262Z,4.00
2019-03-13T05:04:54.141Z,4.00
2019-03-13T05:05:54.147Z,4.00
2019-03-13T05:06:54.612Z,4.00
2019-03-13T05:07:54.171Z,4.00
2019-03-13T05:08:54.179Z,4.00
2019-03-13T05:09:54.202Z,4.00
2019-03-13T05:10:54.203Z,4.00
2019-03-13T05:11:54.213Z,4.00
2019-03-13T05:12:54.244Z,4.00
2019-03-13T05:13:54.238Z,4.00
2019-03-13T05:14:54.348Z,4.00
2019-03-13T05:15:54.255Z,4.00
2019-03-13T05:16:54.274Z,4.00
2019-03-13T05:17:54.274Z,4.00
2019-03-13T05:18:54.290Z,4.00
2019-03-13T05:20:54.308Z,4.00
2019-03-13T05:21:54.319Z,4.00
2019-03-13T05:22:54.326Z,4.00
2019-03-13T05:23:54.342Z,4.00
2019-03-13T05:24:54.357Z,4.00
2019-03-13T05:25:54.364Z,4.00
2019-03-13T05:26:54.381Z,4.00
2019-03-13T05:27:54.406Z,4.00
2019-03-13T05:28:54.441Z,4.00
2019-03-13T05:29:54.405Z,0.00
2019-03-13T05:30:54.424Z,4.00
2019-03-13T05:31:54.422Z,4.00
2019-03-13T05:32:54.438Z,4.00
2019-03-13T05:33:54.447Z,4.00
2019-03-13T05:34:54.456Z,4.00
2019-03-13T05:35:54.532Z,4.00
2019-03-13T05:36:54.601Z,4.00
2019-03-13T05:37:54.498Z,4.00
2019-03-13T05:38:54.499Z,8.00
2019-03-13T05:39:54.508Z,8.00
2019-03-13T05:40:54.521Z,8.00
2019-03-13T05:41:54.538Z,12.00
2019-03-13T05:42:54.558Z,12.00
2019-03-13T05:43:54.561Z,8.00
2019-03-13T05:44:54.572Z,12.00
2019-03-13T05:45:54.669Z,12.00
2019-03-13T05:46:54.594Z,16.00
2019-03-13T05:47:54.603Z,12.00
2019-03-13T05:48:54.603Z,16.00
2019-03-13T05:49:54.624Z,16.00
2019-03-13T05:50:54.654Z,16.00
2019-03-13T05:51:54.638Z,16.00
2019-03-13T05:52:54.647Z,20.00
2019-03-13T05:53:54.772Z,16.00
2019-03-13T05:54:54.679Z,20.00
2019-03-13T05:55:54.695Z,24.00
2019-03-13T05:56:54.698Z,24.00
2019-03-13T05:57:54.701Z,24.00
2019-03-13T05:58:54.722Z,28.00
2019-03-13T05:59:54.750Z,28.00
2019-03-13T06:00:54.746Z,32.00
2019-03-13T06:01:54.742Z,36.00
2019-03-13T06:02:54.753Z,40.00
2019-03-13T06:03:54.766Z,40.00
2019-03-13T06:04:54.788Z,36.00
2019-03-13T06:05:54.784Z,36.00
2019-03-13T06:06:54.795Z,40.00
2019-03-13T06:07:54.822Z,52.00
2019-03-13T06:08:54.826Z,56.00
2019-03-13T06:09:54.835Z,60.00
2019-03-13T06:10:54.850Z,76.00
2019-03-13T06:11:54.956Z,88.00
2019-03-13T06:12:54.859Z,88.00
2019-03-13T06:13:54.874Z,88.00
2019-03-13T06:14:54.879Z,76.00
2019-03-13T06:15:54.900Z,80.00
2019-03-13T06:16:54.913Z,88.00
2019-03-13T06:17:54.956Z,100.00
2019-03-13T06:18:54.949Z,104.00
2019-03-13T06:19:54.956Z,96.00
2019-03-13T06:20:54.946Z,104.00
2019-03-13T06:21:54.963Z,132.00
2019-03-13T06:22:54.967Z,120.00
2019-03-13T06:23:54.981Z,116.00
2019-03-13T06:24:54.990Z,136.00
2019-03-13T06:25:54.997Z,168.00
2019-03-13T06:26:55.114Z,184.00
2019-03-13T06:27:55.022Z,188.00
2019-03-13T06:28:55.337Z,156.00
2019-03-13T06:29:55.066Z,168.00
2019-03-13T06:30:55.056Z,144.00
2019-03-13T06:31:55.063Z,140.00
2019-03-13T06:32:55.073Z,136.00
2019-03-13T06:33:55.096Z,136.00
2019-03-13T06:34:55.094Z,172.00
2019-03-13T06:35:55.119Z,208.00
2019-03-13T06:36:55.124Z,204.00
2019-03-13T06:37:55.131Z,196.00
2019-03-13T06:38:55.136Z,188.00
2019-03-13T06:39:55.155Z,204.00
2019-03-13T06:40:55.174Z,236.00
2019-03-13T06:41:55.173Z,240.00
2019-03-13T06:42:55.178Z,316.00
2019-03-13T06:43:55.195Z,392.00
2019-03-13T06:44:55.204Z,384.00
2019-03-13T06:45:55.213Z,348.00
2019-03-13T06:46:55.239Z,340.00
2019-03-13T06:47:55.238Z,320.00
2019-03-13T06:48:55.252Z,328.00
2019-03-13T06:49:55.258Z,296.00
2019-03-13T06:50:55.268Z,268.00
2019-03-13T06:51:55.279Z,208.00
2019-03-13T06:52:55.286Z,164.00
2019-03-13T06:53:55.309Z,140.00
2019-03-13T06:54:55.321Z,164.00
2019-03-13T06:55:55.322Z,192.00
2019-03-13T06:56:55.333Z,256.00
2019-03-13T06:57:55.838Z,248.00
2019-03-13T06:58:55.352Z,172.00
2019-03-13T06:59:55.364Z,180.00
2019-03-13T07:00:55.391Z,180.00
2019-03-13T07:01:55.406Z,216.00
2019-03-13T07:02:55.400Z,300.00
2019-03-13T07:03:55.409Z,348.00
2019-03-13T07:04:56.118Z,336.00
2019-03-13T07:05:55.448Z,304.00
2019-03-13T07:06:55.445Z,216.00
2019-03-13T07:07:55.457Z,220.00
2019-03-13T07:08:55.463Z,232.00
2019-03-13T07:09:55.474Z,248.00
2019-03-13T07:10:55.487Z,220.00
2019-03-13T07:11:55.592Z,228.00
2019-03-13T07:12:55.503Z,244.00
2019-03-13T07:13:55.514Z,256.00
2019-03-13T07:14:55.521Z,316.00
2019-03-13T07:15:55.532Z,376.00
2019-03-13T07:16:55.543Z,404.00
2019-03-13T07:17:55.569Z,396.00
2019-03-13T07:18:55.569Z,360.00
2019-03-13T07:19:55.726Z,404.00
2019-03-13T07:20:55.617Z,428.00
2019-03-13T07:21:55.598Z,420.00
2019-03-13T07:22:55.607Z,472.00
2019-03-13T07:23:55.620Z,448.00
2019-03-13T07:24:55.699Z,384.00
2019-03-13T07:25:55.658Z,380.00
2019-03-13T07:26:55.657Z,436.00
2019-03-13T07:27:55.665Z,480.00
2019-03-13T07:28:55.689Z,576.00
2019-03-13T07:29:55.688Z,556.00
2019-03-13T07:30:55.746Z,456.00
2019-03-13T07:31:55.728Z,476.00
2019-03-13T07:32:56.752Z,520.00
2019-03-13T07:33:55.743Z,520.00
2019-03-13T07:34:55.826Z,564.00
2019-03-13T07:35:55.756Z,608.00
2019-03-13T07:36:55.760Z,552.00
2019-03-13T07:37:56.535Z,564.00
2019-03-13T07:38:55.784Z,640.00
2019-03-13T07:40:56.135Z,672.00
2019-03-13T07:41:56.329Z,660.00
2019-03-13T07:42:55.827Z,644.00
2019-03-13T07:43:55.839Z,608.00
2019-03-13T07:44:55.853Z,676.00
2019-03-13T07:45:55.864Z,832.00
2019-03-13T07:46:55.871Z,1016.00
2019-03-13T07:47:55.885Z,1224.00
2019-03-13T07:48:55.889Z,1268.00
2019-03-13T07:49:55.908Z,1220.00
2019-03-13T07:50:55.922Z,1224.00
2019-03-13T07:51:55.941Z,1208.00
2019-03-13T07:52:55.945Z,1232.00
2019-03-13T07:53:55.943Z,1228.00
2019-03-13T07:54:55.971Z,1300.00
2019-03-13T07:55:55.982Z,1300.00
2019-03-13T07:56:56.006Z,1296.00
2019-03-13T07:57:56.031Z,1156.00
2019-03-13T07:58:56.011Z,1280.00
2019-03-13T07:59:56.010Z,1128.00
2019-03-13T08:00:56.163Z,988.00
2019-03-13T08:01:58.086Z,1016.00
2019-03-13T08:02:56.101Z,980.00
2019-03-13T08:04:56.075Z,1184.00
2019-03-13T08:05:56.661Z,1324.00
2019-03-13T08:06:56.099Z,1260.00
2019-03-13T08:07:59.033Z,1248.00
2019-03-13T08:08:56.115Z,1224.00
2019-03-13T08:09:56.194Z,1196.00
2019-03-13T08:10:56.143Z,1184.00
2019-03-13T08:11:56.143Z,1108.00
2019-03-13T08:12:56.365Z,944.00
2019-03-13T08:13:56.228Z,1036.00
2019-03-13T08:14:56.351Z,1124.00
2019-03-13T08:15:56.193Z,1388.00
2019-03-13T08:16:56.206Z,1688.00
2019-03-13T08:17:56.217Z,1744.00
2019-03-13T08:18:56.225Z,1780.00
2019-03-13T08:19:56.233Z,1932.00
2019-03-13T08:20:56.248Z,2052.00
2019-03-13T08:21:56.258Z,2088.00
2019-03-13T08:22:56.277Z,2048.00
2019-03-13T08:23:56.284Z,1884.00
2019-03-13T08:26:56.313Z,1460.00
2019-03-13T08:27:57.085Z,1400.00
2019-03-13T08:28:56.348Z,1488.00
2019-03-13T08:29:56.356Z,1608.00
2019-03-13T08:30:56.357Z,1372.00
2019-03-13T08:31:56.373Z,1508.00
2019-03-13T08:32:57.072Z,1460.00
2019-03-13T08:33:56.422Z,1512.00
2019-03-13T08:34:56.405Z,1648.00
2019-03-13T08:35:56.534Z,1652.00
2019-03-13T08:36:56.441Z,1644.00
2019-03-13T08:37:56.452Z,1520.00
2019-03-13T08:39:56.460Z,1424.00
2019-03-13T08:40:56.479Z,1300.00
2019-03-13T08:41:56.490Z,1124.00
2019-03-13T08:42:56.504Z,956.00
2019-03-13T08:43:56.509Z,992.00
2019-03-13T08:44:56.518Z,1048.00
2019-03-13T08:45:56.538Z,1104.00
2019-03-13T08:46:56.560Z,1112.00
2019-03-13T08:47:56.572Z,932.00
2019-03-13T08:49:56.582Z,768.00
2019-03-13T08:50:56.608Z,740.00
2019-03-13T08:51:56.606Z,840.00
2019-03-13T08:52:56.614Z,916.00
2019-03-13T08:53:56.630Z,1192.00
2019-03-13T08:54:56.663Z,1644.00
2019-03-13T08:55:56.657Z,1612.00
2019-03-13T08:56:56.779Z,1104.00
2019-03-13T08:57:56.770Z,960.00
2019-03-13T08:58:56.705Z,920.00
2019-03-13T08:59:56.724Z,864.00
2019-03-13T09:00:56.741Z,816.00
2019-03-13T09:02:56.761Z,968.00
2019-03-13T09:03:56.739Z,928.00
2019-03-13T09:04:56.751Z,884.00
2019-03-13T09:05:56.788Z,892.00
2019-03-13T09:06:57.435Z,932.00
2019-03-13T09:07:57.013Z,1052.00
2019-03-13T09:08:57.359Z,1108.00
2019-03-13T09:09:56.801Z,1316.00
2019-03-13T09:10:56.818Z,1284.00
2019-03-13T09:11:57.015Z,1200.00
2019-03-13T09:13:01.418Z,1412.00
2019-03-13T09:13:56.841Z,1476.00
2019-03-13T09:14:56.855Z,1516.00
2019-03-13T09:15:56.878Z,1284.00
2019-03-13T09:16:57.157Z,1276.00
2019-03-13T09:18:56.895Z,1356.00
2019-03-13T09:19:57.039Z,1284.00
2019-03-13T09:20:56.917Z,1200.00
2019-03-13T09:21:57.088Z,1068.00
2019-03-13T09:22:56.957Z,1068.00
2019-03-13T09:23:56.968Z,1240.00
2019-03-13T09:25:10.829Z,1328.00
2019-03-13T09:25:56.976Z,1656.00
2019-03-13T09:26:56.998Z,1664.00
2019-03-13T09:27:57.001Z,1752.00
2019-03-13T09:28:57.021Z,2196.00
2019-03-13T09:29:57.183Z,2296.00
2019-03-13T09:30:57.457Z,2244.00
2019-03-13T09:31:57.061Z,2216.00
2019-03-13T09:32:57.116Z,2084.00
2019-03-13T09:33:57.066Z,1956.00
2019-03-13T09:35:57.100Z,2208.00
2019-03-13T09:36:57.118Z,1800.00
2019-03-13T09:37:58.136Z,1852.00
2019-03-13T09:38:57.920Z,1836.00
2019-03-13T09:39:57.134Z,1996.00
2019-03-13T09:40:57.245Z,2584.00
2019-03-13T09:41:57.181Z,2548.00
2019-03-13T09:43:59.881Z,2588.00
2019-03-13T09:44:57.333Z,2444.00
2019-03-13T09:45:57.209Z,2060.00
2019-03-13T09:46:57.904Z,1976.00
2019-03-13T09:47:57.225Z,2000.00
2019-03-13T09:48:58.275Z,2004.00
2019-03-13T09:49:57.281Z,1684.00
2019-03-13T09:50:58.382Z,1408.00
2019-03-13T09:51:57.655Z,1536.00
2019-03-13T09:52:57.373Z,1588.00
2019-03-13T09:54:57.396Z,1732.00
2019-03-13T09:56:57.357Z,2688.00
2019-03-13T09:57:57.361Z,2584.00
2019-03-13T09:58:57.374Z,2204.00
2019-03-13T09:59:57.421Z,1824.00
2019-03-13T10:01:57.393Z,1720.00
2019-03-13T10:02:58.033Z,1584.00
2019-03-13T10:03:57.446Z,1636.00
2019-03-13T10:04:57.430Z,1368.00
2019-03-13T10:05:58.062Z,1568.00
2019-03-13T10:06:57.458Z,1736.00
2019-03-13T10:07:57.468Z,1524.00
2019-03-13T10:08:57.470Z,1308.00
2019-03-13T10:09:57.661Z,1320.00
2019-03-13T10:10:57.493Z,1268.00
2019-03-13T10:11:57.740Z,1148.00
2019-03-13T10:12:57.650Z,1112.00
2019-03-13T10:13:57.664Z,1000.00
2019-03-13T10:14:58.005Z,1028.00
2019-03-13T10:15:57.549Z,872.00
2019-03-13T10:17:09.793Z,660.00
2019-03-13T10:17:57.658Z,636.00
2019-03-13T10:18:57.593Z,744.00
2019-03-13T10:19:57.606Z,872.00
2019-03-13T10:20:57.660Z,872.00
2019-03-13T10:21:57.686Z,872.00
2019-03-13T10:22:57.704Z,964.00
2019-03-13T10:23:57.639Z,984.00
2019-03-13T10:25:57.682Z,1336.00
2019-03-13T10:26:57.671Z,1264.00
2019-03-13T10:27:57.687Z,1412.00
2019-03-13T10:28:58.610Z,1588.00
2019-03-13T10:29:57.978Z,1500.00
2019-03-13T10:31:58.166Z,1360.00
2019-03-13T10:32:57.804Z,1256.00
2019-03-13T10:33:57.749Z,1136.00
2019-03-13T10:34:57.813Z,1024.00
2019-03-13T10:35:58.056Z,960.00
2019-03-13T10:36:57.836Z,968.00
2019-03-13T10:37:57.980Z,940.00
2019-03-13T10:38:58.087Z,1092.00
2019-03-13T10:39:57.818Z,1124.00
2019-03-13T10:40:57.942Z,864.00
2019-03-13T10:41:58.954Z,1036.00
2019-03-13T10:42:57.917Z,1072.00
2019-03-13T10:43:57.911Z,904.00
2019-03-13T10:44:58.181Z,824.00
2019-03-13T10:45:57.949Z,800.00
2019-03-13T10:46:57.904Z,1080.00
2019-03-13T10:47:57.928Z,1120.00
2019-03-13T10:48:57.937Z,1488.00
2019-03-13T10:49:57.938Z,2552.00
2019-03-13T10:50:57.948Z,2256.00
2019-03-13T10:51:57.973Z,2064.00
2019-03-13T10:52:57.965Z,1592.00
2019-03-13T10:53:57.988Z,1584.00
2019-03-13T10:54:57.986Z,1580.00
2019-03-13T10:55:58.003Z,1684.00
2019-03-13T10:56:58.129Z,1936.00
2019-03-13T10:57:58.058Z,1712.00
2019-03-13T10:58:58.040Z,1540.00
2019-03-13T10:59:58.493Z,1396.00
2019-03-13T11:00:58.059Z,1504.00
2019-03-13T11:01:58.072Z,2524.00
2019-03-13T11:02:58.087Z,1920.00
2019-03-13T11:03:58.176Z,1392.00
2019-03-13T11:04:58.115Z,1340.00
2019-03-13T11:05:58.124Z,1528.00
2019-03-13T11:06:58.483Z,1444.00
2019-03-13T11:07:58.167Z,1304.00
2019-03-13T11:08:58.157Z,1108.00
2019-03-13T11:09:58.255Z,996.00
2019-03-13T11:10:58.179Z,948.00
2019-03-13T11:11:59.156Z,1052.00
2019-03-13T11:12:58.189Z,1060.00
2019-03-13T11:13:58.246Z,1092.00
2019-03-13T11:14:58.216Z,1468.00
2019-03-13T11:15:58.468Z,1584.00
2019-03-13T11:16:58.374Z,1480.00
2019-03-13T11:17:58.277Z,1548.00
2019-03-13T11:18:58.279Z,1352.00
2019-03-13T11:19:58.277Z,1112.00
2019-03-13T11:20:58.386Z,1204.00
2019-03-13T11:21:58.349Z,1236.00
2019-03-13T11:22:58.307Z,1216.00
2019-03-13T11:24:58.335Z,1208.00
2019-03-13T11:25:58.424Z,1052.00
2019-03-13T11:26:58.354Z,1024.00
2019-03-13T11:27:58.361Z,1136.00
2019-03-13T11:28:58.618Z,1492.00
2019-03-13T11:29:58.427Z,1768.00
2019-03-13T11:30:58.431Z,1628.00
2019-03-13T11:32:58.439Z,1632.00
2019-03-13T11:33:58.474Z,1524.00
2019-03-13T11:34:58.452Z,1300.00
2019-03-13T11:35:58.455Z,1444.00
2019-03-13T11:36:58.470Z,1332.00
2019-03-13T11:37:58.478Z,1380.00
2019-03-13T11:38:59.301Z,1612.00
2019-03-13T11:39:58.501Z,1912.00
2019-03-13T11:40:58.506Z,1924.00
2019-03-13T11:41:58.643Z,2580.00
2019-03-13T11:42:58.531Z,2052.00
2019-03-13T11:43:58.546Z,1624.00
2019-03-13T11:44:58.566Z,1772.00
2019-03-13T11:45:58.570Z,1616.00
2019-03-13T11:46:58.588Z,1424.00
2019-03-13T11:47:58.599Z,1276.00
2019-03-13T11:48:58.607Z,1252.00
2019-03-13T11:50:58.647Z,1428.00
2019-03-13T11:51:58.636Z,1320.00
2019-03-13T11:52:58.733Z,1404.00
2019-03-13T11:53:58.670Z,1524.00
2019-03-13T11:54:58.685Z,1568.00
2019-03-13T11:55:58.689Z,1736.00
2019-03-13T11:56:58.829Z,1656.00
2019-03-13T11:57:59.029Z,1628.00
2019-03-13T11:58:58.722Z,1636.00
2019-03-13T12:00:58.858Z,2040.00
2019-03-13T12:01:58.766Z,2004.00
2019-03-13T12:02:58.769Z,1728.00
2019-03-13T12:03:58.776Z,1716.00
2019-03-13T12:04:58.796Z,1536.00
2019-03-13T12:06:58.810Z,1496.00
2019-03-13T12:07:59.127Z,1288.00
2019-03-13T12:08:58.839Z,1128.00
2019-03-13T12:09:58.845Z,1052.00
2019-03-13T12:10:58.868Z,1164.00
2019-03-13T12:11:58.882Z,1100.00
2019-03-13T12:12:58.880Z,1152.00
2019-03-13T12:13:58.900Z,1172.00
2019-03-13T12:14:58.900Z,1152.00
2019-03-13T12:15:58.927Z,1128.00
2019-03-13T12:16:58.928Z,1004.00
2019-03-13T12:17:58.953Z,1068.00
2019-03-13T12:18:58.957Z,1004.00
2019-03-13T12:19:58.980Z,1032.00
2019-03-13T12:20:59.596Z,964.00
2019-03-13T12:21:58.991Z,808.00
2019-03-13T12:22:58.996Z,656.00
2019-03-13T12:23:59.137Z,616.00
2019-03-13T12:24:59.186Z,656.00
2019-03-13T12:25:59.033Z,740.00
2019-03-13T12:26:59.046Z,840.00
2019-03-13T12:27:59.062Z,968.00
2019-03-13T12:29:59.074Z,1116.00
2019-03-13T12:30:59.085Z,1024.00
2019-03-13T12:31:59.101Z,912.00
2019-03-13T12:32:59.114Z,796.00
2019-03-13T12:33:59.124Z,676.00
2019-03-13T12:34:59.180Z,600.00
2019-03-13T12:35:59.148Z,616.00
2019-03-13T12:36:59.150Z,568.00
2019-03-13T12:37:59.164Z,532.00
2019-03-13T12:38:59.172Z,540.00
2019-03-13T12:39:59.195Z,688.00
2019-03-13T12:41:00.036Z,744.00
2019-03-13T12:41:59.204Z,912.00
2019-03-13T12:42:59.219Z,1056.00
2019-03-13T12:43:59.225Z,1060.00
2019-03-13T12:44:59.329Z,1092.00
2019-03-13T12:45:59.260Z,944.00
2019-03-13T12:46:59.354Z,836.00
2019-03-13T12:47:59.300Z,844.00
2019-03-13T12:48:59.283Z,804.00
2019-03-13T12:49:59.293Z,812.00
2019-03-13T12:50:59.347Z,784.00
2019-03-13T12:51:59.313Z,764.00
2019-03-13T12:52:59.327Z,896.00
2019-03-13T12:53:59.415Z,920.00
2019-03-13T12:55:02.325Z,820.00
2019-03-13T12:55:59.359Z,992.00
2019-03-13T12:56:59.369Z,1048.00
2019-03-13T12:57:59.381Z,976.00
2019-03-13T12:58:59.403Z,736.00
2019-03-13T12:59:59.404Z,896.00
2019-03-13T13:00:59.414Z,800.00
2019-03-13T13:01:59.425Z,668.00
2019-03-13T13:02:59.435Z,508.00
2019-03-13T13:03:59.449Z,528.00
2019-03-13T13:04:59.456Z,508.00
2019-03-13T13:05:59.478Z,588.00
2019-03-13T13:06:59.484Z,596.00
2019-03-13T13:07:59.526Z,600.00